createdAt,value
2023-04-20T00:01:56.929Z,95891.13
2023-04-20T00:04:23.559Z,95894.69
2023-04-20T00:06:51.745Z,95887.38
2023-04-20T00:09:18.813Z,95880.59
2023-04-20T00:11:45.548Z,95881.13
2023-04-20T00:14:12.160Z,95879.78
2023-04-20T00:16:38.662Z,95871.09
2023-04-20T00:19:05.181Z,95868.97
2023-04-20T00:21:31.610Z,95872.75
2023-04-20T00:23:58.095Z,95855.38
2023-04-20T00:26:24.550Z,95853.75
2023-04-20T00:28:51.777Z,95843.97
2023-04-20T00:31:19.471Z,95840.47
2023-04-20T00:33:46.046Z,95837.53
2023-04-20T00:36:12.513Z,95838.09
2023-04-20T00:38:39.159Z,95838.91
2023-04-20T00:41:05.663Z,95838.16
2023-04-20T00:43:32.202Z,95838.69
2023-04-20T00:45:58.757Z,95832.16
2023-04-20T00:48:25.330Z,95831.34
2023-04-20T00:50:52.357Z,95833.00
2023-04-20T00:53:19.180Z,95826.75
2023-04-20T00:55:45.746Z,95820.22
2023-04-20T00:58:12.580Z,95816.97
2023-04-20T01:00:40.582Z,95817.00
2023-04-20T01:03:08.771Z,95814.31
2023-04-20T01:05:35.781Z,95815.94
2023-04-20T01:08:02.334Z,95811.63
2023-04-20T01:10:28.851Z,95807.28
2023-04-20T01:12:55.310Z,95814.56
2023-04-20T01:15:21.762Z,95811.88
2023-04-20T01:17:49.657Z,95805.41
2023-04-20T01:20:16.221Z,95805.69
2023-04-20T01:22:54.259Z,95803.81
2023-04-20T01:25:21.147Z,95797.03
2023-04-20T01:27:48.069Z,95791.38
2023-04-20T01:30:14.786Z,95795.47
2023-04-20T01:32:41.408Z,95799.81
2023-04-20T01:35:09.118Z,95796.03
2023-04-20T01:37:36.399Z,95779.78
2023-04-20T01:40:03.887Z,95784.13
2023-04-20T01:42:30.491Z,95770.84
2023-04-20T01:44:56.992Z,95775.72
2023-04-20T01:47:23.519Z,95786.84
2023-04-20T01:49:50.172Z,95775.22
2023-04-20T01:52:16.663Z,95770.63
2023-04-20T01:54:43.110Z,95766.81
2023-04-20T01:57:09.584Z,95762.22
2023-04-20T01:59:36.065Z,95764.13
2023-04-20T02:02:02.578Z,95763.03
2023-04-20T02:04:29.120Z,95764.66
2023-04-20T02:06:55.676Z,95756.81
2023-04-20T02:09:22.180Z,95762.50
2023-04-20T02:11:48.779Z,95761.16
2023-04-20T02:14:15.250Z,95747.88
2023-04-20T02:16:42.756Z,95754.91
2023-04-20T02:19:09.977Z,95749.78
2023-04-20T02:21:36.468Z,95735.44
2023-04-20T02:24:02.981Z,95729.75
2023-04-20T02:26:29.457Z,95725.13
2023-04-20T02:28:55.967Z,95727.28
2023-04-20T02:31:22.514Z,95724.03
2023-04-20T02:33:49.974Z,95721.31
2023-04-20T02:36:16.467Z,95703.47
2023-04-20T02:38:43.040Z,95712.41
2023-04-20T02:41:09.525Z,95713.47
2023-04-20T02:43:36.268Z,95704.81
2023-04-20T02:46:02.824Z,95713.75
2023-04-20T02:48:29.312Z,95705.09
2023-04-20T02:50:56.804Z,95709.13
2023-04-20T02:53:23.374Z,95708.31
2023-04-20T02:55:49.973Z,95708.31
2023-04-20T02:58:17.685Z,95712.91
2023-04-20T03:00:44.289Z,95711.28
2023-04-20T03:03:11.083Z,95706.97
2023-04-20T03:05:37.683Z,95709.13
2023-04-20T03:08:05.958Z,95707.78
2023-04-20T03:10:32.685Z,95702.38
2023-04-20T03:12:59.403Z,95695.88
2023-04-20T03:15:25.934Z,95696.44
2023-04-20T03:17:52.664Z,95689.94
2023-04-20T03:20:19.243Z,95694.00
2023-04-20T03:22:45.739Z,95682.91
2023-04-20T03:25:12.420Z,95687.50
2023-04-20T03:27:38.894Z,95675.03
2023-04-20T03:30:06.923Z,95671.00
2023-04-20T03:32:33.468Z,95678.56
2023-04-20T03:34:59.974Z,95684.50
2023-04-20T03:37:26.394Z,95685.03
2023-04-20T03:39:52.848Z,95696.34
2023-04-20T03:42:19.497Z,95691.69
2023-04-20T03:44:46.019Z,95681.44
2023-04-20T03:47:12.615Z,95683.63
2023-04-20T03:49:39.105Z,95682.81
2023-04-20T03:52:05.892Z,95673.34
2023-04-20T03:54:32.309Z,95668.22
2023-04-20T03:56:58.797Z,95665.25
2023-04-20T03:59:25.313Z,95673.63
2023-04-20T04:01:52.017Z,95667.13
2023-04-20T04:04:19.008Z,95657.66
2023-04-20T04:06:46.072Z,95664.66
2023-04-20T04:09:12.504Z,95664.41
2023-04-20T04:11:38.974Z,95657.91
2023-04-20T04:14:05.516Z,95655.22
2023-04-20T04:16:32.283Z,95648.22
2023-04-20T04:18:58.745Z,95656.06
2023-04-20T04:21:25.634Z,95645.25
2023-04-20T04:23:52.091Z,95644.19
2023-04-20T04:26:21.404Z,95648.53
2023-04-20T04:28:49.315Z,95640.16
2023-04-20T04:31:17.444Z,95640.97
2023-04-20T04:33:45.763Z,95628.00
2023-04-20T04:36:15.201Z,95629.88
2023-04-20T04:38:44.998Z,95633.66
2023-04-20T04:41:12.723Z,95626.09
2023-04-20T04:43:43.078Z,95626.63
2023-04-20T04:46:10.157Z,95625.00
2023-04-20T04:48:38.070Z,95623.66
2023-04-20T04:51:04.709Z,95620.13
2023-04-20T04:53:31.238Z,95618.22
2023-04-20T04:55:57.674Z,95621.22
2023-04-20T04:58:24.205Z,95621.75
2023-04-20T05:00:50.957Z,95622.56
2023-04-20T05:03:17.831Z,95623.38
2023-04-20T05:05:44.407Z,95615.78
2023-04-20T05:08:11.219Z,95607.13
2023-04-20T05:10:37.928Z,95614.97
2023-04-20T05:13:04.402Z,95623.34
2023-04-20T05:15:32.373Z,95631.75
2023-04-20T05:17:58.996Z,95630.38
2023-04-20T05:20:25.488Z,95633.38
2023-04-20T05:22:52.037Z,95630.94
2023-04-20T05:25:18.695Z,95628.75
2023-04-20T05:27:45.191Z,95630.91
2023-04-20T05:30:20.233Z,95629.03
2023-04-20T05:32:51.104Z,95627.91
2023-04-20T05:35:18.797Z,95630.38
2023-04-20T05:37:45.355Z,95630.66
2023-04-20T05:40:12.935Z,95632.53
2023-04-20T05:42:39.549Z,95634.16
2023-04-20T05:45:06.940Z,95635.78
2023-04-20T05:47:33.480Z,95639.03
2023-04-20T05:49:59.944Z,95639.56
2023-04-20T05:52:26.512Z,95634.16
2023-04-20T05:54:53.243Z,95632.50
2023-04-20T05:57:19.669Z,95636.84
2023-04-20T05:59:46.671Z,95634.13
2023-04-20T06:02:13.236Z,95637.94
2023-04-20T06:04:39.910Z,95647.69
2023-04-20T06:07:06.401Z,95657.19
2023-04-20T06:09:32.879Z,95648.81
2023-04-20T06:12:00.681Z,95656.13
2023-04-20T06:14:27.131Z,95668.03
2023-04-20T06:16:53.941Z,95666.94
2023-04-20T06:19:20.466Z,95672.81
2023-04-20T06:21:46.984Z,95677.38
2023-04-20T06:24:13.609Z,95680.84
2023-04-20T06:26:40.039Z,95674.63
2023-04-20T06:29:06.753Z,95674.91
2023-04-20T06:31:33.341Z,95674.91
2023-04-20T06:33:59.847Z,95667.09
2023-04-20T06:36:27.637Z,95667.09
2023-04-20T06:38:55.018Z,95667.38
2023-04-20T06:41:21.475Z,95669.81
2023-04-20T06:43:47.910Z,95664.44
2023-04-20T06:46:14.528Z,95660.63
2023-04-20T06:48:41.206Z,95656.31
2023-04-20T06:51:07.663Z,95672.50
2023-04-20T06:53:34.395Z,95671.97
2023-04-20T06:56:00.898Z,95665.22
2023-04-20T06:58:27.350Z,95667.09
2023-04-20T07:00:54.102Z,95666.56
2023-04-20T07:03:20.791Z,95667.97
2023-04-20T07:05:47.360Z,95665.03
2023-04-20T07:08:15.836Z,95666.94
2023-04-20T07:10:42.568Z,95669.66
2023-04-20T07:13:09.991Z,95663.41
2023-04-20T07:15:36.412Z,95671.00
2023-04-20T07:18:03.053Z,95664.16
2023-04-20T07:20:29.825Z,95668.28
2023-04-20T07:22:56.323Z,95672.34
2023-04-20T07:25:23.303Z,95676.41
2023-04-20T07:27:49.957Z,95666.94
2023-04-20T07:30:16.448Z,95671.81
2023-04-20T07:32:42.916Z,95677.22
2023-04-20T07:35:09.948Z,95669.38
2023-04-20T07:37:36.478Z,95671.25
2023-04-20T07:40:06.754Z,95668.28
2023-04-20T07:42:36.802Z,95671.00
2023-04-20T07:45:04.589Z,95672.88
2023-04-20T07:47:31.103Z,95669.66
2023-04-20T07:49:57.650Z,95673.16
2023-04-20T07:52:25.691Z,95669.38
2023-04-20T07:54:58.006Z,95675.06
2023-04-20T07:57:24.653Z,95667.75
2023-04-20T07:59:51.210Z,95675.59
2023-04-20T08:02:17.765Z,95670.19
2023-04-20T08:04:44.525Z,95666.66
2023-04-20T08:07:11.315Z,95661.53
2023-04-20T08:09:38.102Z,95665.59
2023-04-20T08:12:05.289Z,95666.66
2023-04-20T08:14:32.100Z,95668.84
2023-04-20T08:16:58.653Z,95662.06
2023-04-20T08:19:25.235Z,95657.19
2023-04-20T08:21:51.895Z,95652.88
2023-04-20T08:24:18.502Z,95661.78
2023-04-20T08:26:45.701Z,95654.75
2023-04-20T08:29:12.151Z,95655.81
2023-04-20T08:31:38.903Z,95654.22
2023-04-20T08:34:05.354Z,95648.53
2023-04-20T08:36:32.164Z,95657.44
2023-04-20T08:39:09.877Z,95652.00
2023-04-20T08:41:36.831Z,95661.47
2023-04-20T08:44:03.809Z,95652.59
2023-04-20T08:46:31.096Z,95660.16
2023-04-20T08:49:00.326Z,95662.59
2023-04-20T08:51:27.402Z,95660.94
2023-04-20T08:53:56.297Z,95656.91
2023-04-20T08:56:35.617Z,95655.28
2023-04-20T08:59:03.900Z,95663.13
2023-04-20T09:01:35.505Z,95659.91
2023-04-20T09:04:16.720Z,95658.00
2023-04-20T09:06:50.073Z,95650.44
2023-04-20T09:09:17.111Z,95651.53
2023-04-20T09:11:43.922Z,95656.13
2023-04-20T09:14:12.900Z,95651.25
2023-04-20T09:16:51.063Z,95648.81
2023-04-20T09:19:31.115Z,95647.19
2023-04-20T09:22:01.245Z,95646.38
2023-04-20T09:24:34.961Z,95648.81
2023-04-20T09:27:14.260Z,95644.47
2023-04-20T09:29:40.744Z,95643.94
2023-04-20T09:32:07.337Z,95644.19
2023-04-20T09:34:46.737Z,95647.44
2023-04-20T09:37:16.642Z,95639.59
2023-04-20T09:39:44.565Z,95637.72
2023-04-20T09:42:15.521Z,95636.63
2023-04-20T09:44:42.774Z,95631.16
2023-04-20T09:47:17.805Z,95634.97
2023-04-20T09:49:46.553Z,95637.94
2023-04-20T09:52:18.007Z,95631.13
2023-04-20T09:54:45.378Z,95625.69
2023-04-20T09:57:13.034Z,95627.81
2023-04-20T09:59:42.929Z,95632.97
2023-04-20T10:02:12.425Z,95628.06
2023-04-20T10:04:54.379Z,95627.47
2023-04-20T10:07:31.758Z,95624.75
2023-04-20T10:10:15.904Z,95623.13
2023-04-20T10:12:49.503Z,95617.31
2023-04-20T10:15:16.703Z,95627.00
2023-04-20T10:17:43.934Z,95620.50
2023-04-20T10:20:29.510Z,95618.84
2023-04-20T10:23:09.622Z,95613.34
2023-04-20T10:25:37.005Z,95613.47
2023-04-20T10:28:08.305Z,95612.59
2023-04-20T10:30:35.417Z,95610.00
2023-04-20T10:33:11.186Z,95607.97
2023-04-20T10:35:46.841Z,95603.75
2023-04-20T10:38:13.437Z,95599.19
2023-04-20T10:40:40.252Z,95607.97
2023-04-20T10:43:19.695Z,95610.06
2023-04-20T10:45:46.192Z,95606.06
2023-04-20T10:48:14.096Z,95607.88
2023-04-20T10:50:41.920Z,95606.53
2023-04-20T10:53:22.698Z,95604.06
2023-04-20T10:55:59.581Z,95599.16
2023-04-20T10:58:26.277Z,95605.53
2023-04-20T11:01:01.157Z,95602.63
2023-04-20T11:03:29.357Z,95599.34
2023-04-20T11:06:00.913Z,95595.91
2023-04-20T11:08:40.484Z,95599.97
2023-04-20T11:11:21.692Z,95601.00
2023-04-20T11:13:48.614Z,95597.16
2023-04-20T11:16:16.907Z,95593.88
2023-04-20T11:18:52.617Z,95589.34
2023-04-20T11:21:20.012Z,95581.34
2023-04-20T11:23:46.798Z,95586.19
2023-04-20T11:26:13.475Z,95582.47
2023-04-20T11:28:55.853Z,95584.13
2023-04-20T11:31:23.444Z,95574.91
2023-04-20T11:33:50.200Z,95577.09
2023-04-20T11:36:23.912Z,95569.91
2023-04-20T11:38:51.117Z,95565.41
2023-04-20T11:41:18.274Z,95564.22
2023-04-20T11:43:46.044Z,95565.75
2023-04-20T11:46:17.122Z,95564.06
2023-04-20T11:48:44.249Z,95559.78
2023-04-20T11:51:10.813Z,95559.50
2023-04-20T11:53:37.978Z,95557.88
2023-04-20T11:56:05.584Z,95560.25
2023-04-20T11:58:32.017Z,95554.97
2023-04-20T12:01:00.080Z,95558.41
2023-04-20T12:03:27.486Z,95553.59
2023-04-20T12:05:54.164Z,95550.50
2023-04-20T12:08:21.143Z,95553.28
2023-04-20T12:10:47.612Z,95559.34
2023-04-20T12:13:14.970Z,95546.72
2023-04-20T12:15:41.462Z,95546.84
2023-04-20T12:18:08.094Z,95542.16
2023-04-20T12:20:34.677Z,95542.44
2023-04-20T12:23:02.412Z,95541.72
2023-04-20T12:25:28.885Z,95540.00
2023-04-20T12:27:55.334Z,95540.16
2023-04-20T12:30:21.827Z,95544.84
2023-04-20T12:32:48.535Z,95542.31
2023-04-20T12:35:15.051Z,95539.75
2023-04-20T12:37:41.570Z,95540.28
2023-04-20T12:40:08.572Z,95542.66
2023-04-20T12:42:35.251Z,95544.56
2023-04-20T12:45:01.812Z,95535.84
2023-04-20T12:47:28.346Z,95537.44
2023-04-20T12:49:55.130Z,95535.69
2023-04-20T12:52:21.658Z,95531.53
2023-04-20T12:54:48.090Z,95531.06
2023-04-20T12:57:14.548Z,95527.19
2023-04-20T12:59:41.228Z,95515.47
2023-04-20T13:02:07.712Z,95514.97
2023-04-20T13:04:36.381Z,95507.84
2023-04-20T13:07:05.259Z,95504.53
2023-04-20T13:09:31.729Z,95507.19
2023-04-20T13:11:58.948Z,95491.31
2023-04-20T13:14:26.436Z,95490.78
2023-04-20T13:16:55.142Z,95485.00
2023-04-20T13:19:22.093Z,95487.72
2023-04-20T13:21:48.558Z,95482.94
2023-04-20T13:24:15.011Z,95483.59
2023-04-20T13:26:41.486Z,95472.19
2023-04-20T13:29:08.139Z,95466.97
2023-04-20T13:31:34.703Z,95456.84
2023-04-20T13:34:01.181Z,95452.91
2023-04-20T13:36:28.316Z,95451.81
2023-04-20T13:38:57.374Z,95431.94
2023-04-20T13:41:23.891Z,95435.78
2023-04-20T13:43:50.741Z,95432.53
2023-04-20T13:46:17.834Z,95427.97
2023-04-20T13:48:44.357Z,95428.25
2023-04-20T13:51:10.964Z,95430.06
2023-04-20T13:53:37.466Z,95424.19
2023-04-20T13:56:04.944Z,95421.50
2023-04-20T13:58:31.619Z,95428.88
2023-04-20T14:00:58.105Z,95421.94
2023-04-20T14:03:26.177Z,95406.06
2023-04-20T14:05:53.054Z,95409.28
2023-04-20T14:08:19.901Z,95407.06
2023-04-20T14:10:46.357Z,95409.25
2023-04-20T14:13:12.878Z,95405.66
2023-04-20T14:15:39.468Z,95404.31
2023-04-20T14:18:06.061Z,95398.50
2023-04-20T14:20:32.733Z,95400.00
2023-04-20T14:22:59.219Z,95395.63
2023-04-20T14:25:25.707Z,95393.53
2023-04-20T14:27:52.175Z,95384.00
2023-04-20T14:30:18.714Z,95376.91
2023-04-20T14:32:59.004Z,95374.75
2023-04-20T14:35:28.147Z,95384.53
2023-04-20T14:37:54.656Z,95375.13
2023-04-20T14:40:21.273Z,95379.47
2023-04-20T14:42:47.749Z,95374.44
2023-04-20T14:45:14.362Z,95369.38
2023-04-20T14:47:41.190Z,95366.06
2023-04-20T14:50:09.044Z,95367.19
2023-04-20T14:52:35.495Z,95360.78
2023-04-20T14:55:02.759Z,95361.31
2023-04-20T14:57:29.636Z,95367.94
2023-04-20T14:59:56.072Z,95359.25
2023-04-20T15:02:22.632Z,95349.47
2023-04-20T15:04:49.320Z,95356.31
2023-04-20T15:07:15.961Z,95356.91
2023-04-20T15:09:42.392Z,95356.59
2023-04-20T15:12:08.806Z,95355.59
2023-04-20T15:14:35.425Z,95352.94
2023-04-20T15:17:01.927Z,95344.53
2023-04-20T15:19:28.500Z,95347.75
2023-04-20T15:21:55.001Z,95348.59
2023-04-20T15:24:21.472Z,95351.56
2023-04-20T15:26:48.008Z,95342.94
2023-04-20T15:29:14.549Z,95337.88
2023-04-20T15:31:43.381Z,95337.44
2023-04-20T15:34:11.216Z,95340.50
2023-04-20T15:36:38.144Z,95337.97
2023-04-20T15:39:04.731Z,95336.22
2023-04-20T15:41:31.169Z,95335.13
2023-04-20T15:43:57.741Z,95337.06
2023-04-20T15:46:26.439Z,95330.81
2023-04-20T15:48:53.078Z,95330.78
2023-04-20T15:51:20.117Z,95332.25
2023-04-20T15:53:50.497Z,95327.16
2023-04-20T15:56:18.740Z,95328.78
2023-04-20T15:58:46.029Z,95325.78
2023-04-20T16:01:12.520Z,95319.41
2023-04-20T16:03:39.355Z,95319.41
2023-04-20T16:06:07.145Z,95333.06
2023-04-20T16:08:33.774Z,95347.00
2023-04-20T16:11:00.311Z,95358.50
2023-04-20T16:13:27.012Z,95361.97
2023-04-20T16:15:55.700Z,95358.75
2023-04-20T16:18:22.214Z,95362.72
2023-04-20T16:20:48.677Z,95355.84
2023-04-20T16:23:15.200Z,95364.53
2023-04-20T16:25:41.888Z,95365.47
2023-04-20T16:28:08.649Z,95384.50
2023-04-20T16:30:36.933Z,95412.75
2023-04-20T16:33:03.871Z,95420.13
2023-04-20T16:35:30.366Z,95428.78
2023-04-20T16:37:57.500Z,95433.34
2023-04-20T16:40:26.165Z,95435.19
2023-04-20T16:42:52.639Z,95451.50
2023-04-20T16:45:19.403Z,95453.13
2023-04-20T16:47:46.399Z,95462.97
2023-04-20T16:50:19.244Z,95465.16
2023-04-20T16:52:49.507Z,95465.38
2023-04-20T16:55:16.018Z,95463.53
2023-04-20T16:57:42.595Z,95461.34
2023-04-20T17:00:10.724Z,95463.69
2023-04-20T17:02:38.247Z,95460.97
2023-04-20T17:05:06.082Z,95452.53
2023-04-20T17:07:33.154Z,95459.72
2023-04-20T17:09:59.815Z,95462.81
2023-04-20T17:12:26.370Z,95462.53
2023-04-20T17:14:52.832Z,95457.59
2023-04-20T17:17:19.295Z,95460.75
2023-04-20T17:19:46.830Z,95459.44
2023-04-20T17:22:13.401Z,95455.91
2023-04-20T17:24:39.829Z,95450.53
2023-04-20T17:27:06.322Z,95453.56
2023-04-20T17:29:38.146Z,95454.06
2023-04-20T17:32:05.800Z,95455.16
2023-04-20T17:34:32.412Z,95460.91
2023-04-20T17:36:58.861Z,95462.81
2023-04-20T17:39:26.122Z,95464.44
2023-04-20T17:41:52.568Z,95470.69
2023-04-20T17:44:19.928Z,95466.03
2023-04-20T17:46:46.681Z,95462.22
2023-04-20T17:49:13.219Z,95478.16
2023-04-20T17:51:39.691Z,95479.84
2023-04-20T17:54:07.680Z,95490.44
2023-04-20T17:56:34.362Z,95489.25
2023-04-20T17:59:01.197Z,95500.63
2023-04-20T18:01:28.155Z,95506.50
2023-04-20T18:03:54.885Z,95505.22
2023-04-20T18:06:21.585Z,95507.00
2023-04-20T18:08:48.112Z,95502.31
2023-04-20T18:11:14.674Z,95517.44
2023-04-20T18:13:41.254Z,95514.88
2023-04-20T18:16:08.417Z,95514.31
2023-04-20T18:18:35.158Z,95511.13
2023-04-20T18:21:01.673Z,95513.59
2023-04-20T18:23:29.915Z,95521.34
2023-04-20T18:25:56.550Z,95513.53
2023-04-20T18:28:23.483Z,95506.03
2023-04-20T18:30:49.981Z,95496.00
2023-04-20T18:33:16.471Z,95494.63
2023-04-20T18:35:43.551Z,95499.19
2023-04-20T18:38:10.032Z,95489.47
2023-04-20T18:40:36.666Z,95495.97
2023-04-20T18:43:03.429Z,95497.56
2023-04-20T18:45:30.150Z,95498.97
2023-04-20T18:47:58.063Z,95492.72
2023-04-20T18:50:24.544Z,95497.34
2023-04-20T18:52:50.963Z,95497.63
2023-04-20T18:55:17.573Z,95503.09
2023-04-20T18:57:44.000Z,95497.13
2023-04-20T19:00:10.896Z,95498.81
2023-04-20T19:02:37.745Z,95514.53
2023-04-20T19:05:04.746Z,95510.22
2023-04-20T19:07:31.180Z,95501.59
2023-04-20T19:09:57.700Z,95504.28
2023-04-20T19:12:24.285Z,95495.88
2023-04-20T19:14:50.777Z,95510.75
2023-04-20T19:17:17.230Z,95508.88
2023-04-20T19:19:43.695Z,95509.16
2023-04-20T19:22:10.167Z,95512.41
2023-04-20T19:24:36.619Z,95506.94
2023-04-20T19:27:03.216Z,95516.97
2023-04-20T19:29:29.766Z,95502.59
2023-04-20T19:31:56.387Z,95505.03
2023-04-20T19:34:22.920Z,95505.84
2023-04-20T19:36:49.491Z,95507.19
2023-04-20T19:39:16.063Z,95506.88
2023-04-20T19:41:42.510Z,95515.56
2023-04-20T19:44:10.495Z,95507.41
2023-04-20T19:46:38.606Z,95501.44
2023-04-20T19:49:05.653Z,95504.72
2023-04-20T19:51:32.641Z,95501.66
2023-04-20T19:54:03.232Z,95498.72
2023-04-20T19:56:29.898Z,95500.91
2023-04-20T19:58:56.412Z,95497.91
2023-04-20T20:01:22.927Z,95493.81
2023-04-20T20:03:49.603Z,95494.38
2023-04-20T20:06:16.308Z,95495.47
2023-04-20T20:08:42.765Z,95492.19
2023-04-20T20:11:09.250Z,95494.38
2023-04-20T20:13:35.757Z,95496.56
2023-04-20T20:16:02.798Z,95493.84
2023-04-20T20:18:29.268Z,95488.97
2023-04-20T20:20:55.845Z,95496.03
2023-04-20T20:23:22.446Z,95495.47
2023-04-20T20:25:48.916Z,95490.06
2023-04-20T20:28:15.543Z,95493.00
2023-04-20T20:30:45.022Z,95493.56
2023-04-20T20:33:12.309Z,95488.41
2023-04-20T20:35:39.750Z,95486.78
2023-04-20T20:38:07.809Z,95487.28
2023-04-20T20:40:35.450Z,95477.03
2023-04-20T20:43:02.098Z,95476.44
2023-04-20T20:45:28.936Z,95477.25
2023-04-20T20:47:55.804Z,95477.78
2023-04-20T20:50:22.943Z,95472.66
2023-04-20T20:52:49.744Z,95470.75
2023-04-20T20:55:16.274Z,95478.06
2023-04-20T20:57:42.741Z,95473.75
2023-04-20T21:00:10.368Z,95473.69
2023-04-20T21:02:37.737Z,95470.47
2023-04-20T21:05:04.874Z,95463.09
2023-04-20T21:07:31.387Z,95473.69
2023-04-20T21:09:57.840Z,95466.66
2023-04-20T21:12:26.399Z,95468.28
2023-04-20T21:14:53.480Z,95465.56
2023-04-20T21:17:20.312Z,95476.69
2023-04-20T21:19:48.438Z,95477.22
2023-04-20T21:22:15.064Z,95473.13
2023-04-20T21:24:41.500Z,95475.53
2023-04-20T21:27:08.058Z,95467.13
2023-04-20T21:29:34.628Z,95458.47
2023-04-20T21:32:01.107Z,95466.59
2023-04-20T21:34:27.788Z,95456.56
2023-04-20T21:36:54.583Z,95470.41
2023-04-20T21:39:21.211Z,95463.31
2023-04-20T21:41:47.800Z,95457.31
2023-04-20T21:44:14.265Z,95456.81
2023-04-20T21:46:40.841Z,95452.19
2023-04-20T21:49:07.333Z,95451.31
2023-04-20T21:51:33.887Z,95457.03
2023-04-20T21:54:00.325Z,95458.38
2023-04-20T21:56:26.926Z,95452.38
2023-04-20T21:58:53.428Z,95454.00
2023-04-20T22:01:19.855Z,95459.41
2023-04-20T22:03:47.616Z,95457.22
2023-04-20T22:06:14.542Z,95447.16
2023-04-20T22:08:41.885Z,95445.78
2023-04-20T22:11:08.914Z,95446.81
2023-04-20T22:13:37.633Z,95448.72
2023-04-20T22:16:04.463Z,95452.75
2023-04-20T22:18:30.945Z,95440.81
2023-04-20T22:20:57.427Z,95440.22
2023-04-20T22:23:24.258Z,95443.19
2023-04-20T22:25:50.903Z,95452.13
2023-04-20T22:28:17.358Z,95444.75
2023-04-20T22:30:45.303Z,95448.56
2023-04-20T22:33:11.746Z,95437.94
2023-04-20T22:35:38.370Z,95442.72
2023-04-20T22:38:04.886Z,95439.47
2023-04-20T22:40:31.388Z,95432.44
2023-04-20T22:42:57.872Z,95431.06
2023-04-20T22:45:24.362Z,95431.84
2023-04-20T22:47:50.882Z,95436.13
2023-04-20T22:50:17.409Z,95425.19
2023-04-20T22:52:43.956Z,95431.50
2023-04-20T22:55:11.123Z,95415.44
2023-04-20T22:57:38.879Z,95418.16
2023-04-20T23:00:10.123Z,95417.63
2023-04-20T23:02:37.592Z,95412.22
2023-04-20T23:05:05.815Z,95410.59
2023-04-20T23:07:33.328Z,95407.59
2023-04-20T23:10:00.426Z,95404.59
2023-04-20T23:12:29.284Z,95400.78
2023-04-20T23:14:56.670Z,95405.16
2023-04-20T23:17:23.355Z,95411.41
2023-04-20T23:19:50.942Z,95410.59
2023-04-20T23:22:17.630Z,95398.69
2023-04-20T23:24:44.320Z,95407.88
2023-04-20T23:27:10.882Z,95393.78
2023-04-20T23:29:37.307Z,95397.03
2023-04-20T23:32:04.055Z,95392.47
2023-04-20T23:34:30.658Z,95391.66
2023-04-20T23:36:57.101Z,95397.66
2023-04-20T23:39:23.666Z,95400.16
2023-04-20T23:41:50.365Z,95399.63
2023-04-20T23:44:16.813Z,95395.38
2023-04-20T23:46:43.248Z,95399.41
2023-04-20T23:49:09.789Z,95395.88
2023-04-20T23:51:36.247Z,95397.50
2023-04-20T23:54:03.470Z,95401.03
2023-04-20T23:56:29.933Z,95392.81
2023-04-20T23:58:56.362Z,95391.50
